Terminal Aerodrome Forecast
Issued by NWS Portland, ME

Home | Current Version | Previous Version | Text Only | Print | Product List | Glossary On
Versions: 1 2 3 4 5 6 7 8 9 10 11 12 13 14 15 16 17 18 19 20 21 22 23
000
FTUS41 KGYX 302320
TAFPWM
TAF
KPWM 302320Z 0100/0124 18007KT P6SM SCT035 BKN100
     FM010600 13004KT 5SM BR OVC050
     FM011300 13007KT 3SM BR VCSH OVC012 PROB30 0118/0122 3SM -TSRA
      OVC012CB=

USA.gov is the U.S. government's official web portal to all federal, state and local government web resources and services.